航空気象通報

ウインドサーファーのための航空気象通報による風予報です。

10/31-11/1の航空気象通報(国内、海外)

2011年10月31日 23時25分42秒 | TAF

羽田空港
TAF RJTT 310850Z 3109/0112 09006KT 9999 FEW025 SCT040
      BECMG 3109/3110 03012KT
日本時間31日18時:090度から6ノットの風
18-19時:風が変化
19時-1日21時:030度から12ノットの風

富士山静岡空港
TAF RJNS 310839Z 3109/0112 06004KT 9999 FEW030
日本時間31日18時-1日21時:060度から4ノットの風

福岡空港
TAF RJFF 310844Z 3109/0112 03006KT 9999 FEW030
      BECMG 3113/3115 14004KT
      BECMG 0103/0106 02006KT
      BECMG 0109/0112 14009KT
日本時間31日18-22時;030度から6ノットの風
22-24時:風が変化
1日00-12時:140度から4ノットの風
12-15時:風が変化
15-18時:020度から6ノットの風
18-21時:風が変化
21時:140度から9ノットの風

那覇空港
TAF ROAH 310841Z 3109/0112 07009KT 9999 FEW015 BKN035
日本時間31日18時-1日21時:070度から9ノットの風

マウイのカフルイ空港
TAF PHOG 311120Z 3112/0112 04008KT P6SM VCSH SCT050
     FM312000 04014G22KT P6SM SCT050
     FM010400 04013KT P6SM SCT050
     FM010700 03007KT P6SM VCSH SCT050
ハワイ時間31日02-10時:040度から8ノットの風
10-18時:040度から14ノット、突風22ノット
18-21時:040度から13ノットの風
21時-1日02時:030度から7ノットの風

サイパン空港
TAF PGSN 311120Z 3112/0112 09013KT P6SM VCSH SCT020 SCT050
マリアナ時間31日22時-1日22時:090度から13ノットの風

コメント

10/30-10/31の航空気象通報(国内、海外)

2011年10月30日 21時48分49秒 | TAF

羽田空港
TAF RJTT 300841Z 3009/3112 01010KT 9999 FEW015 BKN025
      TEMPO 3018/3021 FEW007 BKN009 BKN015
日本時間30日18時-31日21時:010度から10ノットの風

富士山静岡空港
TAF RJNS 300842Z 3009/3112 34006KT 9999 FEW020 BKN060
      BECMG 3100/3103 16006KT
日本時間30日18時-31日09時:340度から6ノットの風
09-12時:風が変化
12-21時:160度から6ノットの風

福岡空港
TAF RJFF 300846Z 3009/3112 03005KT 9999 FEW008 SCT015 BKN025
日本時間30日18時-31日21時:030度から5ノットの風

那覇空港
TAF ROAH 300838Z 3009/3112 02017KT 9999 FEW015 SCT040
日本時間30日18時-31日21時:020度から17ノットの風

マウイのカフルイ空港
TAF PHOG 301132Z 3012/3112 04009KT P6SM FEW050
     FM302200 05018G25KT P6SM FEW030 SCT050
     FM310600 04011KT P6SM FEW050
ハワイ時間30日02-12時:040度から9ノットの風
12-20時:050度から18ノット、突風25ノット
20時-31日02時:040度から11ノットの風

サイパン空港
TAF PGSN 301120Z 3012/3112 10010KT P6SM VCSH SCT018 SCT110
      TEMPO 3012/3013 4SM SHRA SCT015CB BKN030
マリアナ時間30日22時-31日22時:100度から10ノットの風

但し、30日22-23時の間:一時、

コメント

10/29-10/30の航空気象通報(国内、海外)

2011年10月29日 21時38分20秒 | TAF

羽田空港
TAF RJTT 290837Z 2909/3012 04010KT 9999 FEW030
日本時間29日18時-30日21時:040度から10ノットの風

富士山静岡空港
TAF RJNS 290838Z 2909/3012 34004KT 9999 FEW030
      BECMG 2921/2924 04006KT
      BECMG 3009/3012 34006KT
日本時間29日18時-30日06時:340度から4ノットの風
06-09時:風が変化
09-18時:040度から6ノットの風
18-21時:風が変化
21時:340度から6ノットの風

福岡空港
TAF RJFF 290846Z 2909/3012 13005KT 8000 -RA FEW010 SCT025 BKN030
      TEMPO 2914/2918 4000 -RA BR
      BECMG 3003/3006 33008KT
日本時間29日18時-30日12時:130度から5ノットの風
12-15時:風が変化
15-21時:330度から8ノットの風

那覇空港
TAF ROAH 290838Z 2909/3012 36010KT 9999 FEW020
日本時間29日18時-30日21時:360度から10ノットの風

マウイのカフルイ空港
TAF PHOG 291137Z 2912/3012 04008KT P6SM SCT050
     FM291900 04017G23KT P6SM SCT050
     FM300400 04010KT P6SM SCT050
ハワイ時間29日02-09時:040度から8ノットの風
09-18時:040度から17ノット、突風23ノット
18時-30日02時:040度から10ノットの風

サイパン空港
TAF PGSN 291125Z 2912/3012 08008KT P6SM VCSH FEW018 SCT120
     FM300000 10013KT P6SM VCSH SCT016 BKN120
マリアナ時間27日22時-28日10時:080度から8ノットの風

10-22時:100度から13ノットの風

コメント

10/28-10/29の航空気象通報(国内、海外)

2011年10月28日 23時27分23秒 | TAF

羽田空港
TAF RJTT 280840Z 2809/2912 08008KT 9999 FEW030
      BECMG 2811/2813 04008KT
      BECMG 2903/2906 08010KT
日本時間28日18-20時:080度から8ノットの風
20-22時:風が変化
22時-29日12時:040度から8ノットの風
12-15時:風が変化
15-21時:080度から10ノットの風

富士山静岡空港
TAF RJNS 280838Z 2809/2912 04005KT 9999 FEW030
      BECMG 2809/2811 36004KT
      BECMG 2900/2903 12006KT
      BECMG 2909/2912 34004KT
日本時間28日18時:040度から5ノットの風
18-20時:風が変化
20時-29日09時:360度から4ノットの風
09-12時:風が変化
12-18時:120度から6ノットの風
18-21時:風が変化
21時:340度から4ノットの風

福岡空港
TAF RJFF 280848Z 2809/2912 13005KT 9000 -RA FEW015 BKN045
      BECMG 2903/2906 33006KT
      TEMPO 2906/2912 4000 -SHRA BR
      BECMG 2909/2912 14005KT
日本時間28日18時-29日12時:130度から5ノットの風
12-15時:風が変化
15-18時:330度から6ノットの風
18-21時:風が変化
21時:140度から5ノットの風

那覇空港
TAF ROAH 280843Z 2809/2912 02010KT 9999 FEW030
日本時間28日18時-29日21時:020度から10ノットの風

マウイのカフルイ空港
TAF PHOG 281145Z 2812/2912 04008KT P6SM SCT050 BKN200
     FM282000 05015G21KT P6SM FEW035 SCT050 BKN200
     FM290600 05009KT P6SM FEW050
ハワイ時間28日02-10時:040度から8ノットの風
10-20時:050度から15ノット、突風21ノット

20時-29日02時:050度から9ノットの風

サイパン空港
TAF PGSN 281128Z 2812/2912 07009KT P6SM VCSH FEW018 BKN140
     FM290000 09012KT P6SM VCSH SCT018 SCT050
マリアナ時間28日22時-29日22時:070度から9ノットの風

コメント

10/27-10/28の航空気象通報(国内、海外)

2011年10月27日 23時49分11秒 | TAF

羽田空港
TAF RJTT 270836Z 2709/2812 07014KT 9999 FEW030
      BECMG 2710/2712 05012KT
      BECMG 2806/2809 07012KT
日本時間27日18-19時:070度から14ノットの風
19-21時:風が変化
21時-27日15時:050度から12ノットの風
15-18時:風が変化
18-21時:070度から12ノットの風

富士山静岡空港
TAF RJNS 270838Z 2709/2812 12005KT 9999 FEW030
      BECMG 2709/2711 34004KT
      BECMG 2800/2803 14006KT
      BECMG 2809/2812 34004KT
日本時間27日18時:120度から5ノットの風
18-20時:風が変化
20時-28日09時:340度から4ノットの風
09-12時:風が変化
12-18時:140度から6ノットの風
18-21時:風が変化
21時:340度から4ノットの風

福岡空港
TAF RJFF 270842Z 2709/2812 14006KT 9999 FEW040
      BECMG 2803/2806 34007KT
      BECMG 2809/2812 13006KT
日本時間27日18時-28日12時:140度から6ノットの風
12-18時:340度から7ノットの風
18-21時:風が変化
21時:130度から6ノットの風

那覇空港
TAF ROAH 270839Z 2709/2812 06010KT 9999 FEW025 SCT045
日本時間27日18時-28日21時:060度から10ノットの風

マウイのカフルイ空港
TAF PHOG 271133Z 2712/2812 14006KT P6SM FEW035
     FM271900 06010KT P6SM FEW035 SCT060
     FM272200 06014G20KT P6SM FEW040
     FM280400 07007KT P6SM FEW035 SCT060
     FM280900 12005KT P6SM FEW035
ハワイ時間27日02-09時:140度から6ノットの風
09-12時:060度から10ノットの風
12-18時:060度から14ノット、突風20ノット
18-23時:070度から7ノットの風
23時-28日02時:120度から5ノットの風

サイパン空港
TAF PGSN 271120Z 2712/2812 07007KT P6SM VCSH FEW018 BKN120
マリアナ時間27日22時-28日22時:070度から7ノットの風

コメント